sensor_id;sensor_type;location;lat;lon;timestamp;temperature;humidity
57088;DHT22;42965;52.846;6.614;2023-04-21T00:02:11;9.20;99.90
57088;DHT22;42965;52.846;6.614;2023-04-21T00:04:41;9.20;99.90
57088;DHT22;42965;52.846;6.614;2023-04-21T00:07:10;9.20;99.90
57088;DHT22;42965;52.846;6.614;2023-04-21T00:09:40;9.20;99.90
57088;DHT22;42965;52.846;6.614;2023-04-21T00:12:06;9.20;99.90
57088;DHT22;42965;52.846;6.614;2023-04-21T00:14:33;9.20;99.90
57088;DHT22;42965;52.846;6.614;2023-04-21T00:16:59;9.20;99.90
57088;DHT22;42965;52.846;6.614;2023-04-21T00:19:25;9.20;99.90
57088;DHT22;42965;52.846;6.614;2023-04-21T00:21:54;9.20;99.90
57088;DHT22;42965;52.846;6.614;2023-04-21T00:24:24;9.20;99.90
57088;DHT22;42965;52.846;6.614;2023-04-21T00:26:51;9.20;99.90
57088;DHT22;42965;52.846;6.614;2023-04-21T00:29:17;9.20;99.90
57088;DHT22;42965;52.846;6.614;2023-04-21T00:31:44;9.20;99.90
57088;DHT22;42965;52.846;6.614;2023-04-21T00:34:10;9.10;99.90
57088;DHT22;42965;52.846;6.614;2023-04-21T00:36:36;9.10;99.90
57088;DHT22;42965;52.846;6.614;2023-04-21T00:39:06;9.10;99.90
57088;DHT22;42965;52.846;6.614;2023-04-21T00:41:33;9.00;99.90
57088;DHT22;42965;52.846;6.614;2023-04-21T00:44:09;9.00;99.90
57088;DHT22;42965;52.846;6.614;2023-04-21T00:46:36;9.00;99.90
57088;DHT22;42965;52.846;6.614;2023-04-21T00:49:05;9.00;99.90
57088;DHT22;42965;52.846;6.614;2023-04-21T00:51:35;8.90;99.90
57088;DHT22;42965;52.846;6.614;2023-04-21T00:54:04;8.90;99.90
57088;DHT22;42965;52.846;6.614;2023-04-21T00:56:40;8.90;99.90
57088;DHT22;42965;52.846;6.614;2023-04-21T00:59:07;8.80;99.90
57088;DHT22;42965;52.846;6.614;2023-04-21T01:01:33;8.80;99.90
57088;DHT22;42965;52.846;6.614;2023-04-21T01:04:06;8.80;99.90
57088;DHT22;42965;52.846;6.614;2023-04-21T01:06:42;8.80;99.90
57088;DHT22;42965;52.846;6.614;2023-04-21T01:09:09;8.80;99.90
57088;DHT22;42965;52.846;6.614;2023-04-21T01:11:37;8.80;99.90
57088;DHT22;42965;52.846;6.614;2023-04-21T01:14:07;8.80;99.90
57088;DHT22;42965;52.846;6.614;2023-04-21T01:16:33;8.80;99.90
57088;DHT22;42965;52.846;6.614;2023-04-21T01:19:00;8.80;99.90
57088;DHT22;42965;52.846;6.614;2023-04-21T01:21:27;8.80;99.90
57088;DHT22;42965;52.846;6.614;2023-04-21T01:23:54;8.80;99.90
57088;DHT22;42965;52.846;6.614;2023-04-21T01:26:20;8.80;99.90
57088;DHT22;42965;52.846;6.614;2023-04-21T01:28:49;8.80;99.90
57088;DHT22;42965;52.846;6.614;2023-04-21T01:31:16;8.80;99.90
57088;DHT22;42965;52.846;6.614;2023-04-21T01:33:52;8.80;99.90
57088;DHT22;42965;52.846;6.614;2023-04-21T01:36:18;8.80;99.90
57088;DHT22;42965;52.846;6.614;2023-04-21T01:38:44;8.80;99.90
57088;DHT22;42965;52.846;6.614;2023-04-21T01:41:11;8.80;99.90
57088;DHT22;42965;52.846;6.614;2023-04-21T01:43:37;8.80;99.90
57088;DHT22;42965;52.846;6.614;2023-04-21T01:46:04;8.80;99.90
57088;DHT22;42965;52.846;6.614;2023-04-21T01:48:31;8.80;99.90
57088;DHT22;42965;52.846;6.614;2023-04-21T01:50:58;8.80;99.90
57088;DHT22;42965;52.846;6.614;2023-04-21T01:53:24;8.80;99.90
57088;DHT22;42965;52.846;6.614;2023-04-21T01:55:52;8.80;99.90
57088;DHT22;42965;52.846;6.614;2023-04-21T01:58:18;8.80;99.90
57088;DHT22;42965;52.846;6.614;2023-04-21T02:00:45;8.70;99.90
57088;DHT22;42965;52.846;6.614;2023-04-21T02:03:11;8.70;99.90
57088;DHT22;42965;52.846;6.614;2023-04-21T02:05:37;8.70;99.90
57088;DHT22;42965;52.846;6.614;2023-04-21T02:08:03;8.70;99.90
57088;DHT22;42965;52.846;6.614;2023-04-21T02:10:30;8.70;99.90
57088;DHT22;42965;52.846;6.614;2023-04-21T02:12:56;8.70;99.90
57088;DHT22;42965;52.846;6.614;2023-04-21T02:15:22;8.70;99.90
57088;DHT22;42965;52.846;6.614;2023-04-21T02:17:49;8.70;99.90
57088;DHT22;42965;52.846;6.614;2023-04-21T02:20:15;8.60;99.90
57088;DHT22;42965;52.846;6.614;2023-04-21T02:22:42;8.70;99.90
57088;DHT22;42965;52.846;6.614;2023-04-21T02:25:09;8.60;99.90
57088;DHT22;42965;52.846;6.614;2023-04-21T02:27:35;8.60;99.90
57088;DHT22;42965;52.846;6.614;2023-04-21T02:30:02;8.60;99.90
57088;DHT22;42965;52.846;6.614;2023-04-21T02:32:29;8.60;99.90
57088;DHT22;42965;52.846;6.614;2023-04-21T02:34:56;8.60;99.90
57088;DHT22;42965;52.846;6.614;2023-04-21T02:37:23;8.60;99.90
57088;DHT22;42965;52.846;6.614;2023-04-21T02:39:52;8.60;99.90
57088;DHT22;42965;52.846;6.614;2023-04-21T02:42:18;8.60;99.90
57088;DHT22;42965;52.846;6.614;2023-04-21T02:44:47;8.60;99.90
57088;DHT22;42965;52.846;6.614;2023-04-21T02:47:16;8.60;99.90
57088;DHT22;42965;52.846;6.614;2023-04-21T02:49:43;8.50;99.90
57088;DHT22;42965;52.846;6.614;2023-04-21T02:52:11;8.50;99.90
57088;DHT22;42965;52.846;6.614;2023-04-21T02:54:38;8.50;99.90
57088;DHT22;42965;52.846;6.614;2023-04-21T02:57:04;8.60;99.90
57088;DHT22;42965;52.846;6.614;2023-04-21T02:59:32;8.60;99.90
57088;DHT22;42965;52.846;6.614;2023-04-21T03:02:00;8.60;99.90
57088;DHT22;42965;52.846;6.614;2023-04-21T03:04:26;8.60;99.90
57088;DHT22;42965;52.846;6.614;2023-04-21T03:06:53;8.70;99.90
57088;DHT22;42965;52.846;6.614;2023-04-21T03:09:19;8.70;99.90
57088;DHT22;42965;52.846;6.614;2023-04-21T03:11:46;8.60;99.90
57088;DHT22;42965;52.846;6.614;2023-04-21T03:14:13;8.60;99.90
57088;DHT22;42965;52.846;6.614;2023-04-21T03:16:39;8.60;99.90
57088;DHT22;42965;52.846;6.614;2023-04-21T03:19:05;8.60;99.90
57088;DHT22;42965;52.846;6.614;2023-04-21T03:21:32;8.60;99.90
57088;DHT22;42965;52.846;6.614;2023-04-21T03:23:58;8.50;99.90
57088;DHT22;42965;52.846;6.614;2023-04-21T03:26:25;8.50;99.90
57088;DHT22;42965;52.846;6.614;2023-04-21T03:28:51;8.60;99.90
57088;DHT22;42965;52.846;6.614;2023-04-21T03:31:18;8.50;99.90
57088;DHT22;42965;52.846;6.614;2023-04-21T03:33:45;8.60;99.90
57088;DHT22;42965;52.846;6.614;2023-04-21T03:36:11;8.60;99.90
57088;DHT22;42965;52.846;6.614;2023-04-21T03:38:38;8.60;99.90
57088;DHT22;42965;52.846;6.614;2023-04-21T03:41:05;8.60;99.90
57088;DHT22;42965;52.846;6.614;2023-04-21T03:43:33;8.60;99.90
57088;DHT22;42965;52.846;6.614;2023-04-21T03:46:01;8.60;99.90
57088;DHT22;42965;52.846;6.614;2023-04-21T03:48:28;8.70;99.90
57088;DHT22;42965;52.846;6.614;2023-04-21T03:50:54;8.70;99.90
57088;DHT22;42965;52.846;6.614;2023-04-21T03:53:21;8.70;99.90
57088;DHT22;42965;52.846;6.614;2023-04-21T03:55:49;8.70;99.90
57088;DHT22;42965;52.846;6.614;2023-04-21T03:58:16;8.70;99.90
57088;DHT22;42965;52.846;6.614;2023-04-21T04:00:43;8.80;99.90
57088;DHT22;42965;52.846;6.614;2023-04-21T04:03:09;8.70;99.90
57088;DHT22;42965;52.846;6.614;2023-04-21T04:05:35;8.70;99.90
57088;DHT22;42965;52.846;6.614;2023-04-21T04:08:02;8.70;99.90
57088;DHT22;42965;52.846;6.614;2023-04-21T04:10:28;8.70;99.90
57088;DHT22;42965;52.846;6.614;2023-04-21T04:12:55;8.70;99.90
57088;DHT22;42965;52.846;6.614;2023-04-21T04:15:21;8.70;99.90
57088;DHT22;42965;52.846;6.614;2023-04-21T04:17:47;8.70;99.90
57088;DHT22;42965;52.846;6.614;2023-04-21T04:20:14;8.70;99.90
57088;DHT22;42965;52.846;6.614;2023-04-21T04:22:40;8.60;99.90
57088;DHT22;42965;52.846;6.614;2023-04-21T04:25:07;8.70;99.90
57088;DHT22;42965;52.846;6.614;2023-04-21T04:27:33;8.60;99.90
57088;DHT22;42965;52.846;6.614;2023-04-21T04:30:00;8.60;99.90
57088;DHT22;42965;52.846;6.614;2023-04-21T04:32:27;8.60;99.90
57088;DHT22;42965;52.846;6.614;2023-04-21T04:34:55;8.60;99.90
57088;DHT22;42965;52.846;6.614;2023-04-21T04:37:21;8.50;99.90
57088;DHT22;42965;52.846;6.614;2023-04-21T04:39:48;8.50;99.90
57088;DHT22;42965;52.846;6.614;2023-04-21T04:42:17;8.40;99.90
57088;DHT22;42965;52.846;6.614;2023-04-21T04:44:45;8.40;99.90
57088;DHT22;42965;52.846;6.614;2023-04-21T04:47:12;8.40;99.90
57088;DHT22;42965;52.846;6.614;2023-04-21T04:49:39;8.40;99.90
57088;DHT22;42965;52.846;6.614;2023-04-21T04:52:08;8.40;99.90
57088;DHT22;42965;52.846;6.614;2023-04-21T04:54:35;8.40;99.90
57088;DHT22;42965;52.846;6.614;2023-04-21T04:57:02;8.40;99.90
57088;DHT22;42965;52.846;6.614;2023-04-21T04:59:29;8.40;99.90
57088;DHT22;42965;52.846;6.614;2023-04-21T05:01:56;8.50;99.90
57088;DHT22;42965;52.846;6.614;2023-04-21T05:04:42;8.50;99.90
57088;DHT22;42965;52.846;6.614;2023-04-21T05:07:28;8.50;99.90
57088;DHT22;42965;52.846;6.614;2023-04-21T05:09:55;8.60;99.90
57088;DHT22;42965;52.846;6.614;2023-04-21T05:12:21;8.60;99.90
57088;DHT22;42965;52.846;6.614;2023-04-21T05:14:47;8.60;99.90
57088;DHT22;42965;52.846;6.614;2023-04-21T05:17:13;8.60;99.90
57088;DHT22;42965;52.846;6.614;2023-04-21T05:19:39;8.70;99.90
57088;DHT22;42965;52.846;6.614;2023-04-21T05:22:06;8.70;99.90
57088;DHT22;42965;52.846;6.614;2023-04-21T05:24:32;8.70;99.90
57088;DHT22;42965;52.846;6.614;2023-04-21T05:26:59;8.70;99.90
57088;DHT22;42965;52.846;6.614;2023-04-21T05:29:26;8.80;99.90
57088;DHT22;42965;52.846;6.614;2023-04-21T05:31:52;8.80;99.90
57088;DHT22;42965;52.846;6.614;2023-04-21T05:34:19;8.90;99.90
57088;DHT22;42965;52.846;6.614;2023-04-21T05:36:45;8.90;99.90
57088;DHT22;42965;52.846;6.614;2023-04-21T05:39:13;9.00;99.90
57088;DHT22;42965;52.846;6.614;2023-04-21T05:41:41;9.00;99.90
57088;DHT22;42965;52.846;6.614;2023-04-21T05:44:07;9.10;99.90
57088;DHT22;42965;52.846;6.614;2023-04-21T05:46:34;9.20;99.90
57088;DHT22;42965;52.846;6.614;2023-04-21T05:49:00;9.30;99.90
57088;DHT22;42965;52.846;6.614;2023-04-21T05:51:29;9.40;99.90
57088;DHT22;42965;52.846;6.614;2023-04-21T05:53:57;9.50;99.90
57088;DHT22;42965;52.846;6.614;2023-04-21T05:56:23;9.70;99.90
57088;DHT22;42965;52.846;6.614;2023-04-21T05:58:49;9.70;99.90
57088;DHT22;42965;52.846;6.614;2023-04-21T06:01:16;9.80;99.90
57088;DHT22;42965;52.846;6.614;2023-04-21T06:03:42;9.80;99.90
57088;DHT22;42965;52.846;6.614;2023-04-21T06:06:09;10.00;99.90
57088;DHT22;42965;52.846;6.614;2023-04-21T06:08:36;10.00;99.90
57088;DHT22;42965;52.846;6.614;2023-04-21T06:11:03;10.20;99.90
57088;DHT22;42965;52.846;6.614;2023-04-21T06:13:30;10.30;99.90
57088;DHT22;42965;52.846;6.614;2023-04-21T06:15:57;10.40;99.90
57088;DHT22;42965;52.846;6.614;2023-04-21T06:18:25;10.50;99.90
57088;DHT22;42965;52.846;6.614;2023-04-21T06:20:53;10.50;99.90
57088;DHT22;42965;52.846;6.614;2023-04-21T06:23:20;10.70;99.90
57088;DHT22;42965;52.846;6.614;2023-04-21T06:25:57;10.90;99.90
57088;DHT22;42965;52.846;6.614;2023-04-21T06:28:24;10.90;99.90
57088;DHT22;42965;52.846;6.614;2023-04-21T06:30:50;11.00;99.90
57088;DHT22;42965;52.846;6.614;2023-04-21T06:33:16;11.10;99.90
57088;DHT22;42965;52.846;6.614;2023-04-21T06:35:43;11.20;99.90
57088;DHT22;42965;52.846;6.614;2023-04-21T06:38:09;11.30;99.90
57088;DHT22;42965;52.846;6.614;2023-04-21T06:40:36;11.40;99.90
57088;DHT22;42965;52.846;6.614;2023-04-21T06:43:02;11.40;99.90
57088;DHT22;42965;52.846;6.614;2023-04-21T06:45:28;11.50;99.90
57088;DHT22;42965;52.846;6.614;2023-04-21T06:47:55;11.70;99.90
57088;DHT22;42965;52.846;6.614;2023-04-21T06:50:21;11.80;99.90
57088;DHT22;42965;52.846;6.614;2023-04-21T06:52:47;11.90;99.90
57088;DHT22;42965;52.846;6.614;2023-04-21T06:55:13;11.90;99.90
57088;DHT22;42965;52.846;6.614;2023-04-21T06:57:39;11.90;99.90
57088;DHT22;42965;52.846;6.614;2023-04-21T07:00:06;12.00;99.90
57088;DHT22;42965;52.846;6.614;2023-04-21T07:02:32;11.90;99.90
57088;DHT22;42965;52.846;6.614;2023-04-21T07:04:59;11.90;99.90
57088;DHT22;42965;52.846;6.614;2023-04-21T07:07:25;12.00;99.90
57088;DHT22;42965;52.846;6.614;2023-04-21T07:09:51;12.00;99.90
57088;DHT22;42965;52.846;6.614;2023-04-21T07:12:18;12.10;99.90
57088;DHT22;42965;52.846;6.614;2023-04-21T07:14:44;12.20;99.90
57088;DHT22;42965;52.846;6.614;2023-04-21T07:17:10;12.10;99.90
57088;DHT22;42965;52.846;6.614;2023-04-21T07:19:37;12.10;99.90
57088;DHT22;42965;52.846;6.614;2023-04-21T07:22:04;12.10;99.90
57088;DHT22;42965;52.846;6.614;2023-04-21T07:24:30;12.10;99.90
57088;DHT22;42965;52.846;6.614;2023-04-21T07:26:59;12.20;99.90
57088;DHT22;42965;52.846;6.614;2023-04-21T07:29:25;12.20;99.90
57088;DHT22;42965;52.846;6.614;2023-04-21T07:31:51;12.30;99.90
57088;DHT22;42965;52.846;6.614;2023-04-21T07:34:22;12.30;99.90
57088;DHT22;42965;52.846;6.614;2023-04-21T07:36:50;12.30;99.90
57088;DHT22;42965;52.846;6.614;2023-04-21T07:39:17;12.40;99.90
57088;DHT22;42965;52.846;6.614;2023-04-21T07:41:43;12.50;99.90
57088;DHT22;42965;52.846;6.614;2023-04-21T07:44:09;12.50;99.90
57088;DHT22;42965;52.846;6.614;2023-04-21T07:46:35;12.50;99.90
57088;DHT22;42965;52.846;6.614;2023-04-21T07:49:02;12.50;99.90
57088;DHT22;42965;52.846;6.614;2023-04-21T07:51:28;12.60;99.90
57088;DHT22;42965;52.846;6.614;2023-04-21T07:53:54;12.70;99.90
57088;DHT22;42965;52.846;6.614;2023-04-21T07:56:21;12.80;99.90
57088;DHT22;42965;52.846;6.614;2023-04-21T07:58:47;13.10;99.90
57088;DHT22;42965;52.846;6.614;2023-04-21T08:01:14;13.40;99.90
57088;DHT22;42965;52.846;6.614;2023-04-21T08:03:40;13.60;99.90
57088;DHT22;42965;52.846;6.614;2023-04-21T08:06:06;13.60;99.90
57088;DHT22;42965;52.846;6.614;2023-04-21T08:08:33;13.60;99.90
57088;DHT22;42965;52.846;6.614;2023-04-21T08:10:59;13.60;99.90
57088;DHT22;42965;52.846;6.614;2023-04-21T08:13:27;13.60;99.90
57088;DHT22;42965;52.846;6.614;2023-04-21T08:15:53;13.70;99.90
57088;DHT22;42965;52.846;6.614;2023-04-21T08:18:20;13.70;99.90
57088;DHT22;42965;52.846;6.614;2023-04-21T08:20:48;13.80;99.90
57088;DHT22;42965;52.846;6.614;2023-04-21T08:23:14;14.00;99.90
57088;DHT22;42965;52.846;6.614;2023-04-21T08:25:40;14.20;99.90
57088;DHT22;42965;52.846;6.614;2023-04-21T08:28:07;14.20;99.90
57088;DHT22;42965;52.846;6.614;2023-04-21T08:30:33;14.30;99.90
57088;DHT22;42965;52.846;6.614;2023-04-21T08:33:00;14.40;99.90
57088;DHT22;42965;52.846;6.614;2023-04-21T08:35:26;14.60;99.90
57088;DHT22;42965;52.846;6.614;2023-04-21T08:37:53;14.70;99.90
57088;DHT22;42965;52.846;6.614;2023-04-21T08:40:19;14.90;99.90
57088;DHT22;42965;52.846;6.614;2023-04-21T08:42:49;15.40;99.90
57088;DHT22;42965;52.846;6.614;2023-04-21T08:45:15;15.50;99.90
57088;DHT22;42965;52.846;6.614;2023-04-21T08:47:41;15.60;99.90
57088;DHT22;42965;52.846;6.614;2023-04-21T08:50:12;15.40;99.90
57088;DHT22;42965;52.846;6.614;2023-04-21T08:52:38;15.40;99.90
57088;DHT22;42965;52.846;6.614;2023-04-21T08:55:05;15.50;99.90
57088;DHT22;42965;52.846;6.614;2023-04-21T08:57:32;15.60;99.90
57088;DHT22;42965;52.846;6.614;2023-04-21T08:59:58;15.80;99.90
57088;DHT22;42965;52.846;6.614;2023-04-21T09:02:25;16.40;99.90
57088;DHT22;42965;52.846;6.614;2023-04-21T09:04:51;16.50;99.90
57088;DHT22;42965;52.846;6.614;2023-04-21T09:07:35;16.70;99.90
57088;DHT22;42965;52.846;6.614;2023-04-21T09:10:03;16.80;99.90
57088;DHT22;42965;52.846;6.614;2023-04-21T09:12:29;17.00;99.90
57088;DHT22;42965;52.846;6.614;2023-04-21T09:14:56;16.90;99.90
57088;DHT22;42965;52.846;6.614;2023-04-21T09:17:30;16.80;99.90
57088;DHT22;42965;52.846;6.614;2023-04-21T09:20:16;17.30;99.90
57088;DHT22;42965;52.846;6.614;2023-04-21T09:22:43;17.50;99.90
57088;DHT22;42965;52.846;6.614;2023-04-21T09:25:11;17.50;99.90
57088;DHT22;42965;52.846;6.614;2023-04-21T09:27:41;17.40;99.90
57088;DHT22;42965;52.846;6.614;2023-04-21T09:30:08;17.10;99.90
57088;DHT22;42965;52.846;6.614;2023-04-21T09:32:38;17.40;99.90
57088;DHT22;42965;52.846;6.614;2023-04-21T09:35:09;17.60;99.90
57088;DHT22;42965;52.846;6.614;2023-04-21T09:37:37;17.80;99.90
57088;DHT22;42965;52.846;6.614;2023-04-21T09:40:04;17.80;99.90
57088;DHT22;42965;52.846;6.614;2023-04-21T09:42:32;17.90;99.90
57088;DHT22;42965;52.846;6.614;2023-04-21T09:44:58;17.50;99.90
57088;DHT22;42965;52.846;6.614;2023-04-21T09:47:28;17.70;99.90
57088;DHT22;42965;52.846;6.614;2023-04-21T09:49:57;17.80;99.90
57088;DHT22;42965;52.846;6.614;2023-04-21T09:52:26;18.00;99.90
57088;DHT22;42965;52.846;6.614;2023-04-21T09:55:00;18.20;99.90
57088;DHT22;42965;52.846;6.614;2023-04-21T09:57:30;18.00;99.90
57088;DHT22;42965;52.846;6.614;2023-04-21T10:00:03;17.90;99.90
57088;DHT22;42965;52.846;6.614;2023-04-21T10:02:34;17.90;99.90
57088;DHT22;42965;52.846;6.614;2023-04-21T10:05:01;17.90;99.90
57088;DHT22;42965;52.846;6.614;2023-04-21T10:07:28;17.80;99.90
57088;DHT22;42965;52.846;6.614;2023-04-21T10:09:55;17.90;99.90
57088;DHT22;42965;52.846;6.614;2023-04-21T10:12:24;18.40;99.90
57088;DHT22;42965;52.846;6.614;2023-04-21T10:14:52;18.80;99.90
57088;DHT22;42965;52.846;6.614;2023-04-21T10:17:22;19.20;95.80
57088;DHT22;42965;52.846;6.614;2023-04-21T10:19:54;19.80;78.90
57088;DHT22;42965;52.846;6.614;2023-04-21T10:22:31;19.40;77.10
57088;DHT22;42965;52.846;6.614;2023-04-21T10:25:00;19.60;82.20
57088;DHT22;42965;52.846;6.614;2023-04-21T10:27:33;20.50;78.00
57088;DHT22;42965;52.846;6.614;2023-04-21T10:30:00;20.80;68.60
57088;DHT22;42965;52.846;6.614;2023-04-21T10:32:43;21.10;64.90
57088;DHT22;42965;52.846;6.614;2023-04-21T10:35:12;21.00;62.90
57088;DHT22;42965;52.846;6.614;2023-04-21T10:37:40;21.50;64.60
57088;DHT22;42965;52.846;6.614;2023-04-21T10:42:54;21.30;59.90
57088;DHT22;42965;52.846;6.614;2023-04-21T10:45:24;20.90;61.30
57088;DHT22;42965;52.846;6.614;2023-04-21T10:47:52;21.00;61.40
57088;DHT22;42965;52.846;6.614;2023-04-21T10:50:19;20.70;62.30
57088;DHT22;42965;52.846;6.614;2023-04-21T10:55:17;19.80;64.20
57088;DHT22;42965;52.846;6.614;2023-04-21T10:57:44;19.70;64.70
57088;DHT22;42965;52.846;6.614;2023-04-21T11:00:14;19.50;65.80
57088;DHT22;42965;52.846;6.614;2023-04-21T11:02:41;19.60;67.20
57088;DHT22;42965;52.846;6.614;2023-04-21T11:05:08;19.90;66.80
57088;DHT22;42965;52.846;6.614;2023-04-21T11:07:35;20.00;65.50
57088;DHT22;42965;52.846;6.614;2023-04-21T11:10:07;20.80;64.80
57088;DHT22;42965;52.846;6.614;2023-04-21T11:12:38;21.00;62.90
57088;DHT22;42965;52.846;6.614;2023-04-21T11:15:06;21.20;62.40
57088;DHT22;42965;52.846;6.614;2023-04-21T11:17:34;21.10;62.40
57088;DHT22;42965;52.846;6.614;2023-04-21T11:20:01;20.80;61.40
57088;DHT22;42965;52.846;6.614;2023-04-21T11:22:29;20.60;62.10
57088;DHT22;42965;52.846;6.614;2023-04-21T11:24:56;20.40;62.50
57088;DHT22;42965;52.846;6.614;2023-04-21T11:27:26;20.70;62.70
57088;DHT22;42965;52.846;6.614;2023-04-21T11:29:53;21.10;61.50
57088;DHT22;42965;52.846;6.614;2023-04-21T11:32:20;21.60;61.10
57088;DHT22;42965;52.846;6.614;2023-04-21T11:34:46;21.50;59.60
57088;DHT22;42965;52.846;6.614;2023-04-21T11:37:15;21.40;58.60
57088;DHT22;42965;52.846;6.614;2023-04-21T11:39:42;21.30;58.50
57088;DHT22;42965;52.846;6.614;2023-04-21T11:42:10;21.20;57.90
57088;DHT22;42965;52.846;6.614;2023-04-21T11:44:41;21.80;58.40
57088;DHT22;42965;52.846;6.614;2023-04-21T11:49:44;22.70;55.70
57088;DHT22;42965;52.846;6.614;2023-04-21T11:52:21;22.80;54.30
57088;DHT22;42965;52.846;6.614;2023-04-21T11:54:48;23.00;54.10
57088;DHT22;42965;52.846;6.614;2023-04-21T11:57:19;23.10;53.30
57088;DHT22;42965;52.846;6.614;2023-04-21T11:59:47;22.90;53.90
57088;DHT22;42965;52.846;6.614;2023-04-21T12:02:22;23.10;53.40
57088;DHT22;42965;52.846;6.614;2023-04-21T12:05:02;22.90;52.90
57088;DHT22;42965;52.846;6.614;2023-04-21T12:07:37;22.00;52.50
57088;DHT22;42965;52.846;6.614;2023-04-21T12:10:12;21.90;54.00
57088;DHT22;42965;52.846;6.614;2023-04-21T12:12:40;21.90;54.10
57088;DHT22;42965;52.846;6.614;2023-04-21T12:15:09;21.80;54.10
57088;DHT22;42965;52.846;6.614;2023-04-21T12:17:42;21.50;54.80
57088;DHT22;42965;52.846;6.614;2023-04-21T12:20:09;21.00;54.80
57088;DHT22;42965;52.846;6.614;2023-04-21T12:22:36;20.90;54.80
57088;DHT22;42965;52.846;6.614;2023-04-21T12:25:02;21.00;54.10
57088;DHT22;42965;52.846;6.614;2023-04-21T12:27:28;21.20;53.60
57088;DHT22;42965;52.846;6.614;2023-04-21T12:29:54;21.30;54.20
57088;DHT22;42965;52.846;6.614;2023-04-21T12:32:21;21.30;55.00
57088;DHT22;42965;52.846;6.614;2023-04-21T12:34:47;21.00;55.30
57088;DHT22;42965;52.846;6.614;2023-04-21T12:37:13;20.70;55.80
57088;DHT22;42965;52.846;6.614;2023-04-21T12:39:40;20.30;56.90
57088;DHT22;42965;52.846;6.614;2023-04-21T12:42:06;20.20;56.60
57088;DHT22;42965;52.846;6.614;2023-04-21T12:44:33;19.90;56.20
57088;DHT22;42965;52.846;6.614;2023-04-21T12:46:59;19.70;56.30
57088;DHT22;42965;52.846;6.614;2023-04-21T12:49:26;19.50;55.90
57088;DHT22;42965;52.846;6.614;2023-04-21T12:51:55;19.80;56.40
57088;DHT22;42965;52.846;6.614;2023-04-21T12:54:21;20.60;56.00
57088;DHT22;42965;52.846;6.614;2023-04-21T12:56:47;20.50;55.70
57088;DHT22;42965;52.846;6.614;2023-04-21T12:59:13;20.20;54.60
57088;DHT22;42965;52.846;6.614;2023-04-21T13:01:40;20.00;55.60
57088;DHT22;42965;52.846;6.614;2023-04-21T13:04:07;19.90;56.60
57088;DHT22;42965;52.846;6.614;2023-04-21T13:06:33;20.20;55.50
57088;DHT22;42965;52.846;6.614;2023-04-21T13:09:00;20.90;54.00
57088;DHT22;42965;52.846;6.614;2023-04-21T13:11:26;21.10;52.90
57088;DHT22;42965;52.846;6.614;2023-04-21T13:13:53;21.00;52.90
57088;DHT22;42965;52.846;6.614;2023-04-21T13:16:19;20.80;53.40
57088;DHT22;42965;52.846;6.614;2023-04-21T13:18:45;20.80;52.90
57088;DHT22;42965;52.846;6.614;2023-04-21T13:21:12;20.70;53.20
57088;DHT22;42965;52.846;6.614;2023-04-21T13:23:39;20.60;53.20
57088;DHT22;42965;52.846;6.614;2023-04-21T13:26:06;20.60;53.40
57088;DHT22;42965;52.846;6.614;2023-04-21T13:28:33;20.40;54.10
57088;DHT22;42965;52.846;6.614;2023-04-21T13:30:59;20.10;53.50
57088;DHT22;42965;52.846;6.614;2023-04-21T13:33:26;20.30;54.30
57088;DHT22;42965;52.846;6.614;2023-04-21T13:35:52;20.30;53.50
57088;DHT22;42965;52.846;6.614;2023-04-21T13:38:19;20.50;53.00
57088;DHT22;42965;52.846;6.614;2023-04-21T13:40:45;21.50;51.40
57088;DHT22;42965;52.846;6.614;2023-04-21T13:43:13;21.70;51.10
57088;DHT22;42965;52.846;6.614;2023-04-21T13:45:40;21.50;49.80
57088;DHT22;42965;52.846;6.614;2023-04-21T13:48:07;21.30;50.20
57088;DHT22;42965;52.846;6.614;2023-04-21T13:50:33;20.90;50.10
57088;DHT22;42965;52.846;6.614;2023-04-21T13:52:59;20.80;50.70
57088;DHT22;42965;52.846;6.614;2023-04-21T13:55:25;20.90;51.10
57088;DHT22;42965;52.846;6.614;2023-04-21T13:57:51;21.10;50.50
57088;DHT22;42965;52.846;6.614;2023-04-21T14:00:18;21.10;50.30
57088;DHT22;42965;52.846;6.614;2023-04-21T14:02:44;21.00;50.90
57088;DHT22;42965;52.846;6.614;2023-04-21T14:05:10;21.70;48.80
57088;DHT22;42965;52.846;6.614;2023-04-21T14:07:37;22.20;47.90
57088;DHT22;42965;52.846;6.614;2023-04-21T14:10:03;22.70;47.40
57088;DHT22;42965;52.846;6.614;2023-04-21T14:12:30;22.70;47.30
57088;DHT22;42965;52.846;6.614;2023-04-21T14:14:56;23.20;47.60
57088;DHT22;42965;52.846;6.614;2023-04-21T14:17:22;22.80;45.90
57088;DHT22;42965;52.846;6.614;2023-04-21T14:19:49;22.30;46.00
57088;DHT22;42965;52.846;6.614;2023-04-21T14:22:15;22.00;46.20
57088;DHT22;42965;52.846;6.614;2023-04-21T14:24:42;22.10;45.50
57088;DHT22;42965;52.846;6.614;2023-04-21T14:27:08;22.10;45.20
57088;DHT22;42965;52.846;6.614;2023-04-21T14:29:35;22.00;46.00
57088;DHT22;42965;52.846;6.614;2023-04-21T14:32:01;21.60;45.70
57088;DHT22;42965;52.846;6.614;2023-04-21T14:34:28;21.20;46.30
57088;DHT22;42965;52.846;6.614;2023-04-21T14:36:54;21.30;46.40
57088;DHT22;42965;52.846;6.614;2023-04-21T14:39:21;21.70;46.70
57088;DHT22;42965;52.846;6.614;2023-04-21T14:41:47;22.10;45.60
57088;DHT22;42965;52.846;6.614;2023-04-21T14:44:13;22.10;44.90
57088;DHT22;42965;52.846;6.614;2023-04-21T14:46:40;21.80;45.60
57088;DHT22;42965;52.846;6.614;2023-04-21T14:49:07;21.50;45.50
57088;DHT22;42965;52.846;6.614;2023-04-21T14:51:33;21.50;46.50
57088;DHT22;42965;52.846;6.614;2023-04-21T14:53:59;21.40;46.90
57088;DHT22;42965;52.846;6.614;2023-04-21T14:56:26;21.20;46.40
57088;DHT22;42965;52.846;6.614;2023-04-21T14:58:52;21.10;46.80
57088;DHT22;42965;52.846;6.614;2023-04-21T15:01:18;21.00;47.20
57088;DHT22;42965;52.846;6.614;2023-04-21T15:03:44;21.00;47.10
57088;DHT22;42965;52.846;6.614;2023-04-21T15:06:11;21.00;46.00
57088;DHT22;42965;52.846;6.614;2023-04-21T15:08:37;20.80;45.60
57088;DHT22;42965;52.846;6.614;2023-04-21T15:11:03;20.70;45.80
57088;DHT22;42965;52.846;6.614;2023-04-21T15:13:30;20.50;46.00
57088;DHT22;42965;52.846;6.614;2023-04-21T15:15:57;20.30;46.10
57088;DHT22;42965;52.846;6.614;2023-04-21T15:18:23;20.30;46.60
57088;DHT22;42965;52.846;6.614;2023-04-21T15:20:49;20.30;46.60
57088;DHT22;42965;52.846;6.614;2023-04-21T15:23:19;20.30;47.00
57088;DHT22;42965;52.846;6.614;2023-04-21T15:25:45;20.30;46.50
57088;DHT22;42965;52.846;6.614;2023-04-21T15:28:12;20.20;46.90
57088;DHT22;42965;52.846;6.614;2023-04-21T15:30:41;20.20;46.80
57088;DHT22;42965;52.846;6.614;2023-04-21T15:33:07;20.20;47.30
57088;DHT22;42965;52.846;6.614;2023-04-21T15:35:34;20.10;46.80
57088;DHT22;42965;52.846;6.614;2023-04-21T15:38:00;20.10;47.10
57088;DHT22;42965;52.846;6.614;2023-04-21T15:40:26;20.10;47.00
57088;DHT22;42965;52.846;6.614;2023-04-21T15:42:52;20.10;47.10
57088;DHT22;42965;52.846;6.614;2023-04-21T15:45:18;20.20;47.20
57088;DHT22;42965;52.846;6.614;2023-04-21T15:47:46;20.20;46.40